Time;durP1;ratioP1;P1;durP2;ratioP2;P2;SDS_P1;SDS_P2;PMS_P1;PMS_P2;Temp;Humidity;BMP_temperature;BMP_pressure;BME280_temperature;BME280_humidity;BME280_pressure;Samples;Min_cycle;Max_cycle;Signal;HPM_P1;HPM_P2
2023/09/09 00:00:16;;;;;;;51.03;10.10;;;16.80;1.00;;;;;;4976990;28;20181;-81
2023/09/09 00:02:52;;;;;;;57.03;11.07;;;16.70;1.00;;;;;;4972155;28;20673;-81
2023/09/09 00:05:45;;;;;;;55.73;10.37;;;16.70;1.00;;;;;;4981772;28;20414;-81
2023/09/09 00:08:18;;;;;;;56.50;10.17;;;16.70;1.00;;;;;;4974876;28;20456;-81
2023/09/09 00:10:44;;;;;;;54.57;10.23;;;16.70;1.00;;;;;;4974148;28;20438;-80
2023/09/09 00:13:16;;;;;;;52.60;9.67;;;16.70;1.00;;;;;;4976017;28;20487;-81
2023/09/09 00:15:52;;;;;;;55.53;10.77;;;16.70;1.00;;;;;;4975694;28;20193;-81
2023/09/09 00:18:22;;;;;;;56.77;9.73;;;16.60;1.00;;;;;;4976883;28;20913;-81
2023/09/09 00:20:52;;;;;;;54.47;10.43;;;16.60;1.00;;;;;;4977091;28;20889;-80
2023/09/09 00:23:51;;;;;;;53.13;10.43;;;16.60;1.00;;;;;;4963469;28;20420;-81
2023/09/09 00:26:59;;;;;;;61.30;10.47;;;16.60;1.00;;;;;;4976863;28;20844;-81
2023/09/09 00:29:25;;;;;;;52.70;9.80;;;16.60;1.00;;;;;;4969493;28;20484;-81
2023/09/09 00:31:52;;;;;;;59.03;10.40;;;16.50;1.00;;;;;;4976954;28;20834;-81
2023/09/09 00:34:18;;;;;;;68.77;11.43;;;16.50;1.00;;;;;;4975096;28;20185;-81
2023/09/09 00:36:52;;;;;;;53.80;11.33;;;16.40;1.00;;;;;;4976593;28;20424;-81
2023/09/09 00:39:28;;;;;;;50.87;9.73;;;16.50;1.00;;;;;;5000546;28;20646;-81
2023/09/09 00:42:10;;;;;;;54.90;10.63;;;16.40;1.00;;;;;;4976159;28;20925;-81
2023/09/09 00:44:46;;;;;;;49.40;9.83;;;16.40;1.00;;;;;;4976302;28;21024;-81
2023/09/09 00:47:39;;;;;;;52.23;9.70;;;16.40;1.00;;;;;;4981232;28;20413;-81
2023/09/09 00:50:09;;;;;;;53.37;9.80;;;16.40;1.00;;;;;;4974999;28;20437;-81
2023/09/09 00:53:09;;;;;;;51.90;9.87;;;16.40;1.00;;;;;;4977339;28;20513;-81
2023/09/09 00:55:39;;;;;;;57.43;10.67;;;16.30;1.00;;;;;;4976499;28;20474;-82
2023/09/09 00:58:10;;;;;;;55.77;10.10;;;16.30;1.00;;;;;;4975266;28;20411;-81
2023/09/09 01:01:27;;;;;;;55.70;10.10;;;16.30;1.00;;;;;;4974143;28;20418;-81
2023/09/09 01:03:58;;;;;;;50.40;9.70;;;16.30;1.00;;;;;;4970000;28;20410;-81
2023/09/09 01:09:46;;;;;;;54.13;10.30;;;16.20;1.00;;;;;;4963882;28;20589;-81
2023/09/09 01:12:28;;;;;;;54.90;11.40;;;16.20;1.00;;;;;;4976664;28;20480;-80
2023/09/09 01:14:58;;;;;;;52.60;10.47;;;16.10;1.00;;;;;;4974387;28;20557;-81
2023/09/09 01:17:45;;;;;;;49.00;9.53;;;16.10;1.00;;;;;;4977126;28;20436;-80
2023/09/09 01:24:15;;;;;;;51.97;10.93;;;16.10;1.00;;;;;;4978436;28;20460;-80
2023/09/09 01:26:58;;;;;;;60.03;10.10;;;16.10;1.00;;;;;;4975547;28;20409;-81
2023/09/09 01:29:28;;;;;;;50.73;10.00;;;16.00;1.00;;;;;;4956450;28;20384;-81
2023/09/09 01:31:55;;;;;;;61.23;9.33;;;16.00;1.00;;;;;;4972608;28;20406;-81
2023/09/09 01:34:22;;;;;;;53.00;9.67;;;16.00;1.00;;;;;;4975386;28;20521;-81
2023/09/09 01:36:58;;;;;;;54.37;9.80;;;16.00;1.00;;;;;;4978789;28;20940;-81
2023/09/09 01:39:51;;;;;;;56.70;10.00;;;16.00;1.00;;;;;;4975937;28;20505;-81
2023/09/09 01:42:34;;;;;;;57.60;10.40;;;15.90;1.00;;;;;;4975624;28;20409;-80
2023/09/09 01:45:10;;;;;;;53.93;10.30;;;15.90;1.00;;;;;;4975888;28;20496;-80
2023/09/09 01:47:58;;;;;;;55.43;10.83;;;15.90;1.00;;;;;;4975080;28;20756;-80
2023/09/09 01:50:24;;;;;;;53.53;9.80;;;15.90;1.00;;;;;;4974423;28;20462;-80
2023/09/09 01:52:52;;;;;;;52.37;10.00;;;15.80;1.00;;;;;;4974062;28;20414;-80
2023/09/09 01:55:22;;;;;;;51.80;9.77;;;15.80;1.00;;;;;;4975208;28;20612;-81
2023/09/09 01:57:52;;;;;;;51.70;9.27;;;15.80;1.00;;;;;;4973952;28;20965;-81
2023/09/09 02:00:18;;;;;;;48.23;8.97;;;15.80;1.00;;;;;;4973126;28;20448;-81
2023/09/09 02:03:15;;;;;;;50.80;10.07;;;15.80;1.00;;;;;;4974768;28;20480;-81
2023/09/09 02:05:46;;;;;;;49.87;9.73;;;15.80;1.00;;;;;;4974874;28;20192;-81
2023/09/09 02:08:11;;;;;;;50.37;9.53;;;15.80;1.00;;;;;;4998636;28;20393;-81
2023/09/09 02:10:40;;;;;;;53.03;9.50;;;15.70;1.00;;;;;;4974008;28;21343;-81
2023/09/09 02:13:22;;;;;;;54.60;9.43;;;15.70;1.00;;;;;;4973196;28;20618;-82
2023/09/09 02:16:07;;;;;;;59.00;10.43;;;15.70;1.00;;;;;;4969166;28;20409;-81
2023/09/09 02:18:46;;;;;;;51.10;9.70;;;15.70;1.00;;;;;;4974489;28;20923;-81
2023/09/09 02:21:22;;;;;;;57.43;10.07;;;15.70;1.00;;;;;;4974755;28;20505;-81
2023/09/09 02:23:52;;;;;;;55.60;10.27;;;15.60;1.00;;;;;;4974697;28;20441;-81
2023/09/09 02:26:28;;;;;;;50.00;9.27;;;15.60;1.00;;;;;;4974932;28;20397;-81
2023/09/09 02:28:54;;;;;;;52.17;10.03;;;15.60;1.00;;;;;;4976213;28;20430;-80
2023/09/09 02:31:28;;;;;;;55.77;9.80;;;15.60;1.00;;;;;;4973042;28;20474;-80
2023/09/09 02:34:10;;;;;;;56.90;10.20;;;15.60;1.00;;;;;;4975025;28;20532;-80
2023/09/09 02:37:12;;;;;;;51.77;9.10;;;15.50;1.00;;;;;;4974583;28;20500;-81
2023/09/09 02:39:41;;;;;;;54.43;9.63;;;15.50;1.00;;;;;;4966642;28;20771;-81
2023/09/09 02:42:12;;;;;;;52.17;11.07;;;15.50;1.00;;;;;;4974026;28;20461;-81
2023/09/09 02:44:57;;;;;;;51.40;10.20;;;15.40;1.00;;;;;;4974531;28;20437;-81
2023/09/09 02:47:23;;;;;;;56.40;9.40;;;15.40;1.00;;;;;;4971111;28;20491;-81
2023/09/09 02:49:52;;;;;;;54.70;9.97;;;15.50;1.00;;;;;;4974358;28;20535;-81
2023/09/09 02:55:52;;;;;;;49.70;9.67;;;15.50;1.00;;;;;;4969011;28;20919;-80
2023/09/09 02:58:22;;;;;;;53.70;9.90;;;15.40;1.00;;;;;;4974256;28;20396;-80
2023/09/09 03:01:27;;;;;;;50.10;10.40;;;15.40;1.00;;;;;;4974291;28;20400;-80
2023/09/09 03:04:18;;;;;;;52.90;9.60;;;15.40;1.00;;;;;;4959591;28;20432;-81
2023/09/09 03:06:52;;;;;;;52.87;9.50;;;15.40;1.00;;;;;;4964542;28;20447;-80
2023/09/09 03:09:18;;;;;;;51.37;9.97;;;15.30;1.00;;;;;;4974168;28;20405;-81
2023/09/09 03:11:46;;;;;;;55.93;10.40;;;15.30;1.00;;;;;;4973153;28;20756;-81
2023/09/09 03:14:17;;;;;;;63.87;10.23;;;15.30;1.00;;;;;;4974375;28;20627;-81
2023/09/09 03:16:46;;;;;;;52.93;10.80;;;15.30;1.00;;;;;;4974086;28;20477;-81
2023/09/09 03:19:28;;;;;;;49.37;10.40;;;15.30;1.00;;;;;;4974388;28;20764;-82
2023/09/09 03:21:58;;;;;;;51.40;9.97;;;15.30;1.00;;;;;;4970009;28;20434;-81
2023/09/09 03:24:28;;;;;;;53.20;10.70;;;15.30;1.00;;;;;;4974584;28;20915;-81
2023/09/09 03:27:15;;;;;;;60.07;10.97;;;15.30;1.00;;;;;;4978104;28;20892;-80
2023/09/09 03:29:52;;;;;;;49.67;9.47;;;15.20;1.00;;;;;;4966977;28;20458;-81
2023/09/09 03:32:18;;;;;;;51.30;9.23;;;15.20;1.00;;;;;;4977926;28;20490;-81
2023/09/09 03:35:09;;;;;;;51.40;9.70;;;15.20;1.00;;;;;;4978049;28;20524;-80
2023/09/09 03:37:46;;;;;;;55.90;10.13;;;15.20;1.00;;;;;;4968946;28;20230;-80
2023/09/09 03:40:16;;;;;;;51.97;10.50;;;15.10;1.00;;;;;;4976327;28;20738;-80
2023/09/09 03:43:03;;;;;;;49.60;9.57;;;15.10;1.00;;;;;;4976430;28;20400;-80
2023/09/09 03:45:29;;;;;;;54.93;10.20;;;15.10;1.00;;;;;;4977117;28;20436;-80
2023/09/09 03:48:10;;;;;;;64.73;9.87;;;15.10;1.00;;;;;;4977337;28;20428;-80
2023/09/09 03:50:59;;;;;;;53.67;10.23;;;15.10;1.00;;;;;;4965734;28;20981;-80
2023/09/09 03:53:34;;;;;;;51.90;10.30;;;15.10;1.00;;;;;;4983318;28;20443;-80
2023/09/09 03:59:22;;;;;;;59.23;9.83;;;;;;;;;;4978078;28;20381;-85
2023/09/09 04:02:27;;;;;;;49.67;9.60;;;15.00;1.00;;;;;;4988097;28;20452;-85
2023/09/09 04:15:06;;;;;;;53.63;9.70;;;14.90;1.00;;;;;;4977506;28;20393;-85
2023/09/09 04:18:15;;;;;;;52.97;10.10;;;14.80;1.00;;;;;;4977417;28;20393;-85
2023/09/09 04:24:03;;;;;;;59.63;9.80;;;14.80;1.00;;;;;;4977512;28;20433;-85
2023/09/09 04:29:52;;;;;;;48.67;9.20;;;14.70;1.00;;;;;;4977465;28;20209;-87
2023/09/09 04:39:02;;;;;;;51.93;10.10;;;14.60;1.00;;;;;;4977258;28;20400;-88
2023/09/09 04:42:21;;;;;;;53.93;10.63;;;14.60;1.00;;;;;;4976432;28;20489;-86
2023/09/09 04:44:52;;;;;;;51.43;10.23;;;14.60;1.00;;;;;;4985237;28;20412;-85
2023/09/09 04:47:28;;;;;;;60.13;9.90;;;14.60;1.00;;;;;;4988875;28;20420;-85
2023/09/09 04:49:57;;;;;;;54.40;10.67;;;14.60;1.20;;;;;;4975429;28;20437;-85
2023/09/09 04:52:28;;;;;;;51.90;9.70;;;14.60;1.60;;;;;;4976633;28;20426;-86
2023/09/09 04:54:58;;;;;;;51.17;9.53;;;14.60;1.80;;;;;;4977262;28;20415;-86
2023/09/09 04:57:40;;;;;;;48.93;9.73;;;14.60;1.00;;;;;;4976434;28;20441;-87
2023/09/09 05:00:07;;;;;;;52.50;9.53;;;14.60;1.00;;;;;;4975393;28;20436;-87
2023/09/09 05:02:35;;;;;;;54.53;10.30;;;14.60;1.60;;;;;;4976626;28;20412;-87
2023/09/09 05:05:10;;;;;;;54.97;9.83;;;14.60;1.50;;;;;;4982049;28;20416;-87
2023/09/09 05:07:40;;;;;;;52.33;9.63;;;14.60;1.90;;;;;;4975041;28;20428;-87
2023/09/09 05:10:34;;;;;;;52.47;10.20;;;14.60;2.60;;;;;;4975337;28;20439;-87
2023/09/09 05:13:45;;;;;;;49.87;10.03;;;14.60;2.30;;;;;;4981331;28;20399;-87
2023/09/09 05:16:11;;;;;;;48.80;9.00;;;14.60;1.00;;;;;;4995246;28;20422;-87
2023/09/09 05:19:22;;;;;;;51.57;10.30;;;14.60;1.50;;;;;;4974538;28;21038;-87
2023/09/09 05:25:09;;;;;;;61.53;9.40;;;14.60;1.00;;;;;;4976574;28;20509;-86
2023/09/09 05:27:35;;;;;;;57.47;10.20;;;14.60;1.00;;;;;;4973752;28;20513;-86
2023/09/09 05:30:01;;;;;;;50.00;9.43;;;14.60;1.00;;;;;;4975647;28;20229;-86
2023/09/09 05:32:26;;;;;;;57.83;11.03;;;14.60;5.20;;;;;;4974295;28;20201;-86
2023/09/09 05:34:52;;;;;;;50.20;9.77;;;14.60;2.50;;;;;;4974359;28;20281;-86
2023/09/09 05:37:18;;;;;;;56.10;9.60;;;14.70;1.40;;;;;;4973930;28;20178;-86
2023/09/09 05:39:43;;;;;;;50.50;10.23;;;14.70;1.00;;;;;;4973745;28;20195;-86
2023/09/09 05:42:10;;;;;;;51.03;8.70;;;14.70;1.00;;;;;;4973812;28;20732;-87
2023/09/09 05:44:36;;;;;;;55.83;9.40;;;14.80;1.00;;;;;;4974385;28;20222;-86
2023/09/09 05:47:02;;;;;;;48.63;9.20;;;14.80;1.00;;;;;;4971222;28;20980;-86
2023/09/09 05:49:28;;;;;;;49.07;8.93;;;14.90;1.00;;;;;;4986502;28;20457;-85
2023/09/09 05:51:54;;;;;;;51.77;8.60;;;14.90;1.00;;;;;;4974526;28;20415;-86
2023/09/09 05:54:20;;;;;;;49.73;9.23;;;14.90;1.00;;;;;;4974736;28;20430;-86
2023/09/09 05:56:45;;;;;;;48.47;9.57;;;14.90;2.60;;;;;;4974400;28;20649;-86
2023/09/09 05:59:11;;;;;;;50.80;9.40;;;15.00;1.00;;;;;;4977351;28;20245;-85
2023/09/09 06:01:37;;;;;;;51.90;9.40;;;15.00;1.00;;;;;;4975559;28;20189;-82
2023/09/09 06:04:39;;;;;;;49.80;9.57;;;15.10;1.00;;;;;;4974725;28;20273;-82
2023/09/09 06:07:22;;;;;;;51.57;9.47;;;15.20;1.50;;;;;;4974820;28;20178;-91
2023/09/09 06:10:15;;;;;;;47.07;8.80;;;15.20;2.20;;;;;;4975553;28;20456;-86
2023/09/09 06:16:57;;;;;;;48.70;9.03;;;15.40;3.80;;;;;;4975542;28;20444;-88
2023/09/09 06:19:40;;;;;;;49.27;9.40;;;15.50;3.90;;;;;;4969714;28;20484;-86
2023/09/09 06:22:57;;;;;;;50.33;9.60;;;15.50;2.30;;;;;;4972747;28;20463;-88
2023/09/09 06:28:52;;;;;;;51.97;10.03;;;15.80;4.60;;;;;;4974786;28;20417;-87
2023/09/09 06:31:28;;;;;;;48.70;9.67;;;15.90;5.20;;;;;;4973970;28;20478;-86
2023/09/09 06:37:15;;;;;;;52.00;9.63;;;16.10;8.10;;;;;;4974607;28;20433;-87
2023/09/09 06:40:27;;;;;;;51.90;10.00;;;16.20;5.60;;;;;;4973402;28;20434;-87
2023/09/09 06:43:46;;;;;;;52.40;10.13;;;16.40;7.10;;;;;;4970702;28;20219;-87
2023/09/09 06:46:16;;;;;;;55.47;10.47;;;16.60;7.50;;;;;;4984903;28;20941;-86
2023/09/09 06:48:58;;;;;;;52.00;10.50;;;16.80;5.60;;;;;;4991281;28;20476;-87
2023/09/09 06:51:57;;;;;;;50.53;9.63;;;16.80;8.00;;;;;;4971558;28;20469;-87
2023/09/09 06:54:34;;;;;;;57.73;10.57;;;17.00;6.30;;;;;;4973464;28;20440;-86
2023/09/09 07:00:28;;;;;;;53.17;10.60;;;;;;;;;;4976443;28;20877;-87
2023/09/09 07:03:16;;;;;;;56.60;9.03;;;17.50;1.00;;;;;;4994108;28;20924;-87
2023/09/09 07:06:28;;;;;;;50.43;8.53;;;17.60;1.00;;;;;;4993434;28;20440;-88
2023/09/09 07:09:27;;;;;;;51.10;8.20;;;17.80;1.00;;;;;;4989936;28;20472;-84
2023/09/09 07:12:11;;;;;;;59.03;7.97;;;18.00;1.00;;;;;;4969533;28;20449;-84
2023/09/09 07:14:37;;;;;;;50.97;7.90;;;18.10;1.00;;;;;;4994120;28;20432;-86
2023/09/09 07:17:27;;;;;;;47.27;7.80;;;18.20;1.00;;;;;;4978914;28;20844;-86
2023/09/09 07:19:53;;;;;;;46.90;7.40;;;18.40;1.00;;;;;;4993838;28;20428;-87
2023/09/09 07:22:28;;;;;;;47.33;7.70;;;18.60;1.00;;;;;;4976267;28;20453;-86
2023/09/09 07:25:10;;;;;;;51.00;8.20;;;18.60;1.00;;;;;;4969923;28;20645;-86
2023/09/09 07:27:57;;;;;;;46.80;8.17;;;18.70;1.00;;;;;;4977551;28;20436;-87
2023/09/09 07:30:23;;;;;;;47.87;7.17;;;18.80;1.00;;;;;;4976959;28;20472;-87
2023/09/09 07:32:58;;;;;;;51.60;7.07;;;;;;;;;;4977192;28;20453;-87
2023/09/09 07:35:24;;;;;;;47.73;7.20;;;19.10;1.00;;;;;;4977702;28;20191;-86
2023/09/09 07:38:15;;;;;;;62.03;7.97;;;19.20;1.00;;;;;;4978604;28;20557;-88
2023/09/09 07:44:27;;;;;;;46.77;6.90;;;19.50;1.00;;;;;;4978362;28;20417;-88
2023/09/09 07:46:59;;;;;;;46.40;7.53;;;19.60;1.00;;;;;;4976490;28;20413;-88
2023/09/09 07:52:58;;;;;;;46.73;7.30;;;19.90;1.00;;;;;;4977221;28;20466;-89
2023/09/09 07:55:57;;;;;;;48.43;7.30;;;20.00;1.00;;;;;;4977145;28;20976;-88
2023/09/09 07:58:28;;;;;;;46.13;7.00;;;20.10;1.00;;;;;;4969876;28;20508;-89
2023/09/09 08:01:07;;;;;;;44.90;6.67;;;20.30;1.00;;;;;;4976089;28;20439;-89
2023/09/09 08:04:04;;;;;;;44.60;7.40;;;20.30;1.00;;;;;;4976010;28;20410;-89
2023/09/09 08:06:29;;;;;;;45.10;6.47;;;20.50;1.00;;;;;;4994055;28;20496;-89
2023/09/09 08:09:33;;;;;;;45.70;7.33;;;20.60;1.00;;;;;;4990236;28;20935;-89
2023/09/09 08:15:21;;;;;;;47.27;7.00;;;20.90;1.00;;;;;;4976892;28;20424;-90
2023/09/09 08:17:52;;;;;;;44.20;6.60;;;21.00;1.00;;;;;;4976564;28;20425;-90
2023/09/09 08:23:53;;;;;;;54.80;7.70;;;21.20;1.00;;;;;;4974904;28;20975;-89
2023/09/09 08:26:29;;;;;;;45.90;7.17;;;21.30;1.00;;;;;;4973069;28;20426;-90
2023/09/09 08:32:28;;;;;;;44.93;7.27;;;21.60;1.00;;;;;;4975951;28;20453;-90
2023/09/09 08:35:31;;;;;;;46.90;7.30;;;21.60;1.00;;;;;;4988158;28;20600;-90
2023/09/09 08:37:59;;;;;;;46.13;7.43;;;21.80;1.00;;;;;;4976518;28;20433;-90
2023/09/09 08:41:03;;;;;;;44.27;7.50;;;22.00;1.00;;;;;;4977342;28;20416;-90
2023/09/09 08:43:57;;;;;;;48.20;7.10;;;22.20;1.00;;;;;;4975393;28;20523;-90
2023/09/09 08:46:40;;;;;;;51.77;7.53;;;22.20;1.00;;;;;;4976401;28;20496;-90
2023/09/09 08:49:28;;;;;;;45.83;7.53;;;22.40;1.00;;;;;;4975882;28;20493;-91
2023/09/09 08:52:03;;;;;;;44.17;6.90;;;22.60;1.00;;;;;;4975498;28;20451;-91
2023/09/09 08:54:40;;;;;;;44.73;6.80;;;22.60;1.00;;;;;;4976391;28;20909;-91
2023/09/09 08:57:06;;;;;;;44.50;6.77;;;22.70;1.00;;;;;;4976132;28;20937;-91
2023/09/09 08:59:58;;;;;;;45.77;6.50;;;22.80;1.00;;;;;;4976546;28;20467;-91
2023/09/09 09:02:35;;;;;;;47.00;6.60;;;22.90;1.00;;;;;;4992352;28;20545;-91
2023/09/09 09:08:28;;;;;;;43.53;6.57;;;23.20;1.00;;;;;;4957452;29;20441;-90
2023/09/09 09:14:16;;;;;;;44.87;7.00;;;23.40;1.00;;;;;;4958010;29;20390;-90
2023/09/09 09:16:48;;;;;;;47.33;6.87;;;23.50;1.00;;;;;;4972665;28;20463;-90
2023/09/09 09:19:39;;;;;;;42.90;6.80;;;23.60;1.00;;;;;;4971112;28;20427;-91
2023/09/09 09:22:23;;;;;;;44.40;6.80;;;23.70;1.00;;;;;;4963105;28;20433;-91
2023/09/09 09:25:28;;;;;;;47.40;7.20;;;23.90;1.00;;;;;;4975554;28;20515;-91
2023/09/09 09:27:58;;;;;;;41.70;6.80;;;24.00;1.00;;;;;;4991354;28;20432;-90
2023/09/09 09:30:25;;;;;;;43.17;6.60;;;24.10;1.00;;;;;;4975754;28;20520;-89
2023/09/09 09:32:58;;;;;;;44.20;6.90;;;24.20;1.00;;;;;;4975645;28;20838;-89
2023/09/09 09:35:30;;;;;;;43.17;6.63;;;24.30;1.00;;;;;;4975291;28;20455;-90
2023/09/09 09:38:00;;;;;;;43.30;6.83;;;24.40;1.00;;;;;;4975008;28;20410;-89
2023/09/09 09:41:09;;;;;;;41.77;6.63;;;24.50;1.00;;;;;;4968348;28;20408;-90
2023/09/09 09:43:36;;;;;;;45.00;6.90;;;24.70;1.00;;;;;;4976306;28;20431;-88
2023/09/09 09:46:27;;;;;;;42.30;6.47;;;24.70;1.00;;;;;;4971506;28;20421;-90
2023/09/09 09:49:07;;;;;;;43.80;6.83;;;24.70;1.00;;;;;;4975049;28;20432;-90
2023/09/09 09:54:58;;;;;;;42.50;6.80;;;24.90;1.00;;;;;;4975995;28;20404;-89
2023/09/09 09:57:26;;;;;;;44.60;6.63;;;25.10;1.00;;;;;;4973824;28;20457;-90
2023/09/09 10:06:37;;;;;;;49.47;7.10;;;25.40;1.00;;;;;;4975680;28;20376;-91
2023/09/09 10:13:18;;;;;;;46.83;6.77;;;25.50;1.00;;;;;;4973397;28;20990;-91
2023/09/09 10:19:07;;;;;;;46.60;7.50;;;26.00;1.00;;;;;;4975141;28;20413;-90
2023/09/09 10:22:21;;;;;;;41.67;6.50;;;26.00;1.00;;;;;;4972963;28;20417;-85
2023/09/09 10:25:22;;;;;;;46.40;7.30;;;26.10;1.00;;;;;;4975681;28;20428;-88
2023/09/09 10:28:22;;;;;;;43.27;6.60;;;26.10;1.00;;;;;;4978182;28;20477;-88
2023/09/09 10:31:05;;;;;;;41.90;7.37;;;26.30;1.00;;;;;;4972401;28;20465;-88
2023/09/09 10:33:53;;;;;;;41.90;6.93;;;26.40;1.00;;;;;;4963142;28;20528;-84
2023/09/09 10:36:36;;;;;;;46.23;6.63;;;26.50;1.00;;;;;;4974901;28;20965;-83
2023/09/09 10:39:02;;;;;;;43.03;6.97;;;26.70;1.00;;;;;;4974363;28;20395;-83
2023/09/09 10:41:30;;;;;;;48.37;7.07;;;26.70;1.00;;;;;;4974851;28;20424;-84
2023/09/09 10:44:16;;;;;;;40.17;6.87;;;26.80;1.00;;;;;;4974800;28;20404;-83
2023/09/09 10:46:41;;;;;;;41.37;6.33;;;26.90;1.00;;;;;;4971013;28;20925;-85
2023/09/09 10:49:27;;;;;;;43.93;7.47;;;27.00;1.00;;;;;;4973320;28;20441;-85
2023/09/09 10:52:34;;;;;;;43.90;7.50;;;27.10;1.00;;;;;;4973449;28;20209;-84
2023/09/09 10:55:45;;;;;;;45.30;7.10;;;27.20;1.00;;;;;;4973813;28;20416;-86
2023/09/09 10:58:40;;;;;;;43.03;6.43;;;27.30;1.00;;;;;;4971633;28;20413;-85
2023/09/09 11:01:23;;;;;;;41.67;7.40;;;27.50;1.00;;;;;;4986675;28;20448;-85
2023/09/09 11:04:39;;;;;;;43.30;6.90;;;27.60;1.00;;;;;;4964538;28;20437;-86
2023/09/09 11:07:43;;;;;;;42.07;6.53;;;27.80;1.00;;;;;;4987981;28;20461;-85
2023/09/09 11:10:51;;;;;;;45.67;7.33;;;27.90;1.00;;;;;;4972747;28;21766;-85
2023/09/09 11:13:59;;;;;;;43.83;7.70;;;28.00;1.00;;;;;;4970610;28;20424;-85
2023/09/09 11:17:05;;;;;;;41.93;6.50;;;28.10;1.00;;;;;;4954533;29;20410;-84
2023/09/09 11:19:34;;;;;;;43.40;7.00;;;28.20;1.00;;;;;;4967624;28;20931;-85
2023/09/09 11:22:04;;;;;;;45.07;7.83;;;28.20;1.00;;;;;;4969203;28;20444;-85
2023/09/09 11:25:10;;;;;;;41.00;7.03;;;28.30;1.00;;;;;;4974662;28;20421;-85
2023/09/09 11:27:53;;;;;;;43.53;6.40;;;28.50;1.00;;;;;;4973889;28;20439;-85
2023/09/09 11:30:46;;;;;;;41.90;6.47;;;28.60;1.00;;;;;;4972972;28;20490;-85
2023/09/09 11:33:25;;;;;;;39.90;6.90;;;28.80;1.00;;;;;;4974215;28;20448;-84
2023/09/09 11:36:40;;;;;;;41.30;7.43;;;28.80;1.00;;;;;;4965863;28;20431;-84
2023/09/09 11:39:16;;;;;;;44.73;7.67;;;28.90;1.00;;;;;;4974295;28;20416;-84
2023/09/09 11:41:46;;;;;;;41.00;6.90;;;29.00;1.00;;;;;;4966452;28;20417;-84
2023/09/09 11:44:12;;;;;;;41.50;6.93;;;29.10;1.00;;;;;;4960004;28;20450;-84
2023/09/09 11:46:48;;;;;;;43.60;6.93;;;29.10;1.00;;;;;;4991401;28;20432;-85
2023/09/09 11:49:16;;;;;;;41.10;6.93;;;29.30;1.00;;;;;;4977911;28;20180;-84
2023/09/09 11:51:52;;;;;;;39.87;7.23;;;29.40;1.00;;;;;;4976149;28;20540;-84
2023/09/09 11:54:22;;;;;;;40.83;6.77;;;29.50;1.00;;;;;;4977948;28;20495;-84
2023/09/09 11:57:06;;;;;;;42.47;7.80;;;29.60;1.00;;;;;;4977298;28;20473;-84
2023/09/09 11:59:52;;;;;;;40.97;6.40;;;29.60;1.00;;;;;;4985567;28;20432;-85
2023/09/09 12:02:25;;;;;;;42.07;7.33;;;29.80;1.00;;;;;;4976837;28;20429;-84
2023/09/09 12:08:22;;;;;;;42.93;7.07;;;29.90;1.00;;;;;;4977299;28;20537;-83
2023/09/09 12:11:13;;;;;;;40.07;7.00;;;29.90;1.00;;;;;;4975705;28;20489;-84
2023/09/09 12:13:40;;;;;;;51.40;7.30;;;29.90;1.00;;;;;;4975968;28;20410;-84
2023/09/09 12:16:09;;;;;;;43.53;6.70;;;30.00;1.00;;;;;;4975791;28;20426;-84
2023/09/09 12:18:41;;;;;;;39.80;6.50;;;30.00;1.00;;;;;;4976409;28;20430;-84
2023/09/09 12:21:29;;;;;;;50.03;7.10;;;30.00;1.00;;;;;;4975751;28;20414;-85
2023/09/09 12:24:05;;;;;;;39.33;6.47;;;30.00;1.00;;;;;;4977306;28;20932;-84
2023/09/09 12:27:10;;;;;;;42.97;7.00;;;30.10;1.00;;;;;;4975823;28;20409;-83
2023/09/09 12:29:52;;;;;;;39.60;6.43;;;30.10;1.00;;;;;;4991183;28;20425;-83
2023/09/09 12:32:19;;;;;;;41.30;7.00;;;30.10;1.00;;;;;;4976702;28;20446;-83
2023/09/09 12:34:52;;;;;;;41.60;7.30;;;30.20;1.00;;;;;;4976965;28;20905;-84
2023/09/09 12:37:22;;;;;;;37.47;5.93;;;30.20;1.00;;;;;;4975773;28;20406;-84
2023/09/09 12:40:28;;;;;;;39.20;6.73;;;30.40;1.00;;;;;;4991822;28;20787;-84
2023/09/09 12:43:09;;;;;;;38.77;6.00;;;30.40;1.00;;;;;;4979643;28;20488;-84
2023/09/09 12:46:27;;;;;;;43.20;7.37;;;30.40;1.00;;;;;;4975664;28;20417;-84
2023/09/09 12:49:22;;;;;;;38.47;6.43;;;30.50;1.00;;;;;;4975784;28;20433;-84
2023/09/09 12:51:47;;;;;;;39.30;6.00;;;30.50;1.00;;;;;;4975503;28;20465;-83
2023/09/09 12:54:16;;;;;;;42.87;8.47;;;30.50;1.00;;;;;;4975961;28;20434;-82
2023/09/09 12:56:52;;;;;;;43.77;7.73;;;30.50;1.00;;;;;;4972461;28;20585;-82
2023/09/09 12:59:22;;;;;;;44.93;7.67;;;30.60;1.00;;;;;;4962155;28;20785;-82
2023/09/09 13:01:58;;;;;;;40.90;6.50;;;30.60;1.00;;;;;;4974055;28;20438;-83
2023/09/09 13:07:47;;;;;;;40.47;6.90;;;30.70;1.00;;;;;;4975525;28;20947;-85
2023/09/09 13:10:16;;;;;;;40.80;7.40;;;30.80;1.00;;;;;;4972956;28;20457;-85
2023/09/09 13:12:46;;;;;;;42.07;6.77;;;30.80;1.00;;;;;;4974438;28;20472;-85
2023/09/09 13:15:51;;;;;;;39.00;6.30;;;30.90;1.00;;;;;;4976423;28;20964;-85
2023/09/09 13:18:46;;;;;;;40.23;6.27;;;31.00;1.00;;;;;;4975219;28;20417;-86
2023/09/09 13:21:16;;;;;;;38.87;6.17;;;31.10;1.00;;;;;;4975208;28;20450;-85
2023/09/09 13:23:52;;;;;;;38.60;6.00;;;31.10;1.00;;;;;;4974676;28;20467;-86
2023/09/09 13:29:46;;;;;;;38.87;6.50;;;31.10;1.00;;;;;;4975945;28;20453;-86
2023/09/09 13:32:11;;;;;;;42.13;6.87;;;31.10;1.00;;;;;;4974291;28;20437;-86
2023/09/09 13:34:52;;;;;;;50.70;6.90;;;31.20;1.00;;;;;;4974298;28;20554;-86
2023/09/09 13:37:52;;;;;;;39.30;6.33;;;31.20;1.00;;;;;;4974565;28;20277;-86
2023/09/09 13:40:22;;;;;;;39.80;6.37;;;31.20;1.00;;;;;;4983005;28;20433;-86
2023/09/09 13:43:10;;;;;;;39.90;5.97;;;31.30;1.00;;;;;;4974256;28;20440;-85
2023/09/09 13:46:21;;;;;;;44.40;6.80;;;31.30;1.00;;;;;;4974479;28;20504;-86
2023/09/09 13:49:22;;;;;;;39.10;6.70;;;31.30;1.00;;;;;;4986655;28;20446;-86
2023/09/09 13:52:05;;;;;;;41.27;6.67;;;31.30;1.00;;;;;;4974982;28;20552;-90
2023/09/09 13:54:51;;;;;;;42.13;6.87;;;31.40;1.00;;;;;;4974175;28;20424;-93
2023/09/09 13:57:23;;;;;;;38.20;6.40;;;31.50;1.00;;;;;;4995107;28;20437;-90
2023/09/09 13:59:52;;;;;;;40.03;6.53;;;;;;;;;;4974939;28;20418;-89
2023/09/09 14:03:10;;;;;;;38.37;6.20;;;31.70;1.00;;;;;;4990665;28;20776;-89
2023/09/09 14:06:04;;;;;;;39.63;6.40;;;31.70;1.00;;;;;;4993261;28;20987;-89
2023/09/09 14:08:52;;;;;;;41.00;7.30;;;31.70;1.00;;;;;;4974046;28;20399;-90
2023/09/09 14:11:26;;;;;;;44.23;6.70;;;31.70;1.00;;;;;;4974533;28;20461;-88
2023/09/09 14:14:22;;;;;;;40.10;6.80;;;31.70;1.00;;;;;;4963919;28;20462;-88
2023/09/09 14:16:55;;;;;;;38.97;7.10;;;31.70;1.00;;;;;;4975755;28;20422;-92
2023/09/09 14:19:22;;;;;;;40.37;6.97;;;31.70;1.00;;;;;;4974605;28;20429;-92
2023/09/09 14:21:52;;;;;;;39.17;6.83;;;;;;;;;;4974268;28;20580;-88
2023/09/09 14:24:22;;;;;;;38.50;6.20;;;31.60;1.00;;;;;;4990985;28;20410;-88
2023/09/09 14:26:52;;;;;;;41.53;7.70;;;31.60;1.00;;;;;;4974898;28;20407;-88
2023/09/09 14:29:22;;;;;;;40.90;6.63;;;31.60;1.00;;;;;;4970292;28;20520;-89
2023/09/09 14:31:56;;;;;;;38.40;6.50;;;31.60;1.00;;;;;;4974463;28;20458;-89
2023/09/09 14:34:43;;;;;;;38.57;6.50;;;31.60;1.00;;;;;;4974295;28;20426;-89
2023/09/09 14:37:23;;;;;;;41.83;6.40;;;31.60;1.00;;;;;;4974415;28;20409;-86
2023/09/09 14:39:52;;;;;;;38.07;5.90;;;31.50;1.00;;;;;;4973789;28;20936;-85
2023/09/09 14:42:22;;;;;;;39.07;6.50;;;31.60;1.00;;;;;;4971447;28;20951;-86
2023/09/09 14:45:04;;;;;;;39.93;6.17;;;31.70;1.00;;;;;;4974031;28;20422;-86
2023/09/09 14:47:58;;;;;;;38.57;5.90;;;31.90;1.00;;;;;;4979812;28;20477;-87
2023/09/09 14:51:00;;;;;;;39.00;6.40;;;32.00;1.00;;;;;;4966181;28;20511;-87
2023/09/09 14:53:26;;;;;;;40.30;6.90;;;32.00;1.00;;;;;;4973415;28;20441;-88
2023/09/09 14:55:58;;;;;;;38.30;6.73;;;32.10;1.00;;;;;;4973994;28;20492;-89
2023/09/09 14:58:34;;;;;;;40.40;6.63;;;32.20;1.00;;;;;;4979147;28;20182;-88
2023/09/09 15:01:04;;;;;;;40.43;6.50;;;32.40;1.00;;;;;;4970484;28;21023;-88
2023/09/09 15:03:41;;;;;;;40.90;5.73;;;33.00;1.00;;;;;;4973302;28;20952;-89
2023/09/09 15:06:10;;;;;;;37.40;5.90;;;33.80;1.00;;;;;;4973648;28;20518;-88
2023/09/09 15:08:40;;;;;;;40.00;6.13;;;34.80;1.00;;;;;;4973646;28;20963;-88
2023/09/09 15:11:10;;;;;;;37.87;6.03;;;35.80;1.00;;;;;;4972790;28;20501;-88
2023/09/09 15:13:40;;;;;;;35.63;5.47;;;36.90;1.00;;;;;;4962759;28;20520;-88
2023/09/09 15:16:10;;;;;;;36.47;5.90;;;38.00;1.00;;;;;;4973334;28;20430;-87
2023/09/09 15:18:36;;;;;;;38.50;6.27;;;38.90;1.00;;;;;;4972195;28;20424;-89
2023/09/09 15:21:04;;;;;;;36.17;5.77;;;39.80;1.00;;;;;;4975284;28;20798;-86
2023/09/09 15:23:40;;;;;;;32.47;5.30;;;40.30;1.00;;;;;;4978519;28;20520;-88
2023/09/09 15:26:10;;;;;;;31.00;5.03;;;40.90;1.00;;;;;;4976679;28;20961;-88
2023/09/09 15:28:47;;;;;;;31.30;5.30;;;41.30;1.00;;;;;;4976710;28;20433;-88
2023/09/09 15:31:22;;;;;;;31.60;5.60;;;41.90;1.00;;;;;;4977009;28;20523;-92
2023/09/09 15:33:52;;;;;;;32.17;4.67;;;42.50;1.00;;;;;;4974089;28;20448;-88